sensor_id;sensor_type;location;lat;lon;timestamp;P1;durP1;ratioP1;P2;durP2;ratioP2
34481;SDS011;20720;48.886;9.388;2023-07-29T00:02:06;2.72;;;1.70;;
34481;SDS011;20720;48.886;9.388;2023-07-29T00:04:32;4.22;;;1.60;;
34481;SDS011;20720;48.886;9.388;2023-07-29T00:06:57;2.80;;;1.80;;
34481;SDS011;20720;48.886;9.388;2023-07-29T00:09:22;2.88;;;2.10;;
34481;SDS011;20720;48.886;9.388;2023-07-29T00:11:47;3.75;;;1.75;;
34481;SDS011;20720;48.886;9.388;2023-07-29T00:14:13;3.20;;;2.00;;
34481;SDS011;20720;48.886;9.388;2023-07-29T00:16:38;2.50;;;1.75;;
34481;SDS011;20720;48.886;9.388;2023-07-29T00:19:03;2.60;;;1.77;;
34481;SDS011;20720;48.886;9.388;2023-07-29T00:21:29;3.58;;;1.98;;
34481;SDS011;20720;48.886;9.388;2023-07-29T00:23:54;8.13;;;1.70;;
34481;SDS011;20720;48.886;9.388;2023-07-29T00:26:22;3.05;;;1.83;;
34481;SDS011;20720;48.886;9.388;2023-07-29T00:28:47;5.70;;;1.83;;
34481;SDS011;20720;48.886;9.388;2023-07-29T00:31:12;3.67;;;1.52;;
34481;SDS011;20720;48.886;9.388;2023-07-29T00:33:38;2.13;;;1.52;;
34481;SDS011;20720;48.886;9.388;2023-07-29T00:36:03;3.75;;;1.65;;
34481;SDS011;20720;48.886;9.388;2023-07-29T00:38:28;3.28;;;1.50;;
34481;SDS011;20720;48.886;9.388;2023-07-29T00:40:54;3.58;;;1.33;;
34481;SDS011;20720;48.886;9.388;2023-07-29T00:43:21;2.65;;;1.70;;
34481;SDS011;20720;48.886;9.388;2023-07-29T00:45:47;2.38;;;1.48;;
34481;SDS011;20720;48.886;9.388;2023-07-29T00:48:12;5.95;;;1.40;;
34481;SDS011;20720;48.886;9.388;2023-07-29T00:50:38;2.92;;;1.40;;
34481;SDS011;20720;48.886;9.388;2023-07-29T00:53:03;2.65;;;1.67;;
34481;SDS011;20720;48.886;9.388;2023-07-29T00:55:28;2.53;;;1.50;;
34481;SDS011;20720;48.886;9.388;2023-07-29T00:57:54;2.10;;;1.40;;
34481;SDS011;20720;48.886;9.388;2023-07-29T01:00:20;6.55;;;1.60;;
34481;SDS011;20720;48.886;9.388;2023-07-29T01:02:46;4.80;;;1.63;;
34481;SDS011;20720;48.886;9.388;2023-07-29T01:05:12;2.70;;;1.60;;
34481;SDS011;20720;48.886;9.388;2023-07-29T01:07:41;3.85;;;1.50;;
34481;SDS011;20720;48.886;9.388;2023-07-29T01:10:22;2.50;;;1.40;;
34481;SDS011;20720;48.886;9.388;2023-07-29T01:15:33;3.13;;;1.50;;
34481;SDS011;20720;48.886;9.388;2023-07-29T01:18:08;3.28;;;1.50;;
34481;SDS011;20720;48.886;9.388;2023-07-29T01:20:47;5.68;;;1.45;;
34481;SDS011;20720;48.886;9.388;2023-07-29T01:23:13;1.63;;;1.10;;
34481;SDS011;20720;48.886;9.388;2023-07-29T01:25:38;2.47;;;1.42;;
34481;SDS011;20720;48.886;9.388;2023-07-29T01:28:04;1.95;;;1.20;;
34481;SDS011;20720;48.886;9.388;2023-07-29T01:30:30;5.30;;;1.70;;
34481;SDS011;20720;48.886;9.388;2023-07-29T01:33:16;4.30;;;1.48;;
34481;SDS011;20720;48.886;9.388;2023-07-29T01:35:46;3.30;;;1.40;;
34481;SDS011;20720;48.886;9.388;2023-07-29T01:38:19;2.08;;;1.30;;
34481;SDS011;20720;48.886;9.388;2023-07-29T01:40:49;4.10;;;1.55;;
34481;SDS011;20720;48.886;9.388;2023-07-29T01:43:16;2.30;;;1.10;;
34481;SDS011;20720;48.886;9.388;2023-07-29T01:45:42;1.80;;;1.10;;
34481;SDS011;20720;48.886;9.388;2023-07-29T01:48:08;1.80;;;0.90;;
34481;SDS011;20720;48.886;9.388;2023-07-29T01:50:33;1.70;;;1.08;;
34481;SDS011;20720;48.886;9.388;2023-07-29T01:53:05;2.45;;;1.45;;
34481;SDS011;20720;48.886;9.388;2023-07-29T01:55:31;2.08;;;1.15;;
34481;SDS011;20720;48.886;9.388;2023-07-29T01:57:56;3.63;;;1.30;;
34481;SDS011;20720;48.886;9.388;2023-07-29T02:00:21;2.13;;;1.27;;
34481;SDS011;20720;48.886;9.388;2023-07-29T02:02:46;2.60;;;1.33;;
34481;SDS011;20720;48.886;9.388;2023-07-29T02:05:12;2.72;;;1.25;;
34481;SDS011;20720;48.886;9.388;2023-07-29T02:07:37;1.70;;;1.00;;
34481;SDS011;20720;48.886;9.388;2023-07-29T02:10:02;2.15;;;1.13;;
34481;SDS011;20720;48.886;9.388;2023-07-29T02:12:28;2.75;;;1.20;;
34481;SDS011;20720;48.886;9.388;2023-07-29T02:14:53;1.95;;;1.20;;
34481;SDS011;20720;48.886;9.388;2023-07-29T02:17:18;3.75;;;1.40;;
34481;SDS011;20720;48.886;9.388;2023-07-29T02:19:44;2.53;;;1.42;;
34481;SDS011;20720;48.886;9.388;2023-07-29T02:22:10;1.77;;;1.05;;
34481;SDS011;20720;48.886;9.388;2023-07-29T02:24:38;3.97;;;1.20;;
34481;SDS011;20720;48.886;9.388;2023-07-29T02:27:03;1.60;;;1.13;;
34481;SDS011;20720;48.886;9.388;2023-07-29T02:29:28;1.45;;;0.82;;
34481;SDS011;20720;48.886;9.388;2023-07-29T02:31:55;2.15;;;1.00;;
34481;SDS011;20720;48.886;9.388;2023-07-29T02:34:20;1.50;;;0.98;;
34481;SDS011;20720;48.886;9.388;2023-07-29T02:36:46;1.70;;;1.20;;
34481;SDS011;20720;48.886;9.388;2023-07-29T02:39:11;3.35;;;1.17;;
34481;SDS011;20720;48.886;9.388;2023-07-29T02:41:36;2.17;;;1.05;;
34481;SDS011;20720;48.886;9.388;2023-07-29T02:44:01;2.13;;;0.90;;
34481;SDS011;20720;48.886;9.388;2023-07-29T02:46:28;3.38;;;1.00;;
34481;SDS011;20720;48.886;9.388;2023-07-29T02:48:53;2.88;;;1.10;;
34481;SDS011;20720;48.886;9.388;2023-07-29T02:51:18;1.95;;;1.10;;
34481;SDS011;20720;48.886;9.388;2023-07-29T02:53:43;2.28;;;1.00;;
34481;SDS011;20720;48.886;9.388;2023-07-29T02:56:09;1.85;;;0.98;;
34481;SDS011;20720;48.886;9.388;2023-07-29T02:58:35;3.83;;;1.20;;
34481;SDS011;20720;48.886;9.388;2023-07-29T03:01:04;1.90;;;0.95;;
34481;SDS011;20720;48.886;9.388;2023-07-29T03:03:31;3.25;;;1.00;;
34481;SDS011;20720;48.886;9.388;2023-07-29T03:05:59;2.35;;;1.20;;
34481;SDS011;20720;48.886;9.388;2023-07-29T03:08:26;1.98;;;1.05;;
34481;SDS011;20720;48.886;9.388;2023-07-29T03:10:51;2.78;;;1.15;;
34481;SDS011;20720;48.886;9.388;2023-07-29T03:13:16;3.33;;;0.98;;
34481;SDS011;20720;48.886;9.388;2023-07-29T03:15:42;3.78;;;1.10;;
34481;SDS011;20720;48.886;9.388;2023-07-29T03:18:07;4.05;;;1.10;;
34481;SDS011;20720;48.886;9.388;2023-07-29T03:20:32;3.97;;;1.17;;
34481;SDS011;20720;48.886;9.388;2023-07-29T03:22:57;1.85;;;1.05;;
34481;SDS011;20720;48.886;9.388;2023-07-29T03:25:23;3.42;;;1.58;;
34481;SDS011;20720;48.886;9.388;2023-07-29T03:27:48;2.17;;;1.13;;
34481;SDS011;20720;48.886;9.388;2023-07-29T03:30:14;3.58;;;1.40;;
34481;SDS011;20720;48.886;9.388;2023-07-29T03:32:43;1.75;;;1.10;;
34481;SDS011;20720;48.886;9.388;2023-07-29T03:35:09;2.88;;;1.13;;
34481;SDS011;20720;48.886;9.388;2023-07-29T03:37:34;2.05;;;1.08;;
34481;SDS011;20720;48.886;9.388;2023-07-29T03:39:59;2.35;;;1.33;;
34481;SDS011;20720;48.886;9.388;2023-07-29T03:42:25;1.90;;;1.30;;
34481;SDS011;20720;48.886;9.388;2023-07-29T03:44:50;4.25;;;1.30;;
34481;SDS011;20720;48.886;9.388;2023-07-29T03:47:15;1.83;;;1.00;;
34481;SDS011;20720;48.886;9.388;2023-07-29T03:49:40;3.92;;;1.25;;
34481;SDS011;20720;48.886;9.388;2023-07-29T03:52:06;2.67;;;1.30;;
34481;SDS011;20720;48.886;9.388;2023-07-29T03:54:31;2.65;;;1.35;;
34481;SDS011;20720;48.886;9.388;2023-07-29T03:56:56;2.05;;;1.30;;
34481;SDS011;20720;48.886;9.388;2023-07-29T03:59:21;2.97;;;1.50;;
34481;SDS011;20720;48.886;9.388;2023-07-29T04:01:47;3.97;;;1.58;;
34481;SDS011;20720;48.886;9.388;2023-07-29T04:04:13;2.55;;;1.40;;
34481;SDS011;20720;48.886;9.388;2023-07-29T04:06:38;2.17;;;1.05;;
34481;SDS011;20720;48.886;9.388;2023-07-29T04:09:03;3.47;;;1.60;;
34481;SDS011;20720;48.886;9.388;2023-07-29T04:11:29;3.13;;;1.23;;
34481;SDS011;20720;48.886;9.388;2023-07-29T04:13:54;3.60;;;1.40;;
34481;SDS011;20720;48.886;9.388;2023-07-29T04:16:19;1.98;;;1.20;;
34481;SDS011;20720;48.886;9.388;2023-07-29T04:18:44;2.75;;;1.33;;
34481;SDS011;20720;48.886;9.388;2023-07-29T04:21:10;5.18;;;1.48;;
34481;SDS011;20720;48.886;9.388;2023-07-29T04:23:35;4.40;;;2.10;;
34481;SDS011;20720;48.886;9.388;2023-07-29T04:26:01;2.78;;;1.50;;
34481;SDS011;20720;48.886;9.388;2023-07-29T04:28:26;2.55;;;1.40;;
34481;SDS011;20720;48.886;9.388;2023-07-29T04:30:51;2.63;;;1.55;;
34481;SDS011;20720;48.886;9.388;2023-07-29T04:33:16;3.30;;;1.40;;
34481;SDS011;20720;48.886;9.388;2023-07-29T04:35:42;1.83;;;1.20;;
34481;SDS011;20720;48.886;9.388;2023-07-29T04:38:07;3.28;;;1.60;;
34481;SDS011;20720;48.886;9.388;2023-07-29T04:40:32;3.90;;;1.60;;
34481;SDS011;20720;48.886;9.388;2023-07-29T04:42:59;3.35;;;1.73;;
34481;SDS011;20720;48.886;9.388;2023-07-29T04:45:27;4.55;;;1.73;;
34481;SDS011;20720;48.886;9.388;2023-07-29T04:47:54;3.33;;;1.83;;
34481;SDS011;20720;48.886;9.388;2023-07-29T04:50:19;4.60;;;1.92;;
34481;SDS011;20720;48.886;9.388;2023-07-29T04:52:45;3.75;;;1.90;;
34481;SDS011;20720;48.886;9.388;2023-07-29T04:55:10;2.90;;;1.50;;
34481;SDS011;20720;48.886;9.388;2023-07-29T04:57:35;3.15;;;1.70;;
34481;SDS011;20720;48.886;9.388;2023-07-29T05:00:00;9.05;;;1.90;;
34481;SDS011;20720;48.886;9.388;2023-07-29T05:02:27;3.28;;;1.75;;
34481;SDS011;20720;48.886;9.388;2023-07-29T05:04:53;3.28;;;1.92;;
34481;SDS011;20720;48.886;9.388;2023-07-29T05:07:18;4.55;;;1.95;;
34481;SDS011;20720;48.886;9.388;2023-07-29T05:09:43;4.50;;;2.30;;
34481;SDS011;20720;48.886;9.388;2023-07-29T05:12:09;7.03;;;2.00;;
34481;SDS011;20720;48.886;9.388;2023-07-29T05:14:34;3.47;;;1.92;;
34481;SDS011;20720;48.886;9.388;2023-07-29T05:16:59;4.28;;;1.98;;
34481;SDS011;20720;48.886;9.388;2023-07-29T05:19:25;3.42;;;1.70;;
34481;SDS011;20720;48.886;9.388;2023-07-29T05:21:51;5.72;;;2.00;;
34481;SDS011;20720;48.886;9.388;2023-07-29T05:24:16;4.13;;;2.40;;
34481;SDS011;20720;48.886;9.388;2023-07-29T05:26:42;6.35;;;2.83;;
34481;SDS011;20720;48.886;9.388;2023-07-29T05:29:07;4.22;;;2.33;;
34481;SDS011;20720;48.886;9.388;2023-07-29T05:31:32;4.30;;;2.20;;
34481;SDS011;20720;48.886;9.388;2023-07-29T05:33:58;2.75;;;1.75;;
34481;SDS011;20720;48.886;9.388;2023-07-29T05:36:24;4.85;;;2.50;;
34481;SDS011;20720;48.886;9.388;2023-07-29T05:38:49;3.22;;;2.10;;
34481;SDS011;20720;48.886;9.388;2023-07-29T05:41:15;4.85;;;2.25;;
34481;SDS011;20720;48.886;9.388;2023-07-29T05:43:40;3.53;;;2.30;;
34481;SDS011;20720;48.886;9.388;2023-07-29T05:46:08;3.45;;;2.15;;
34481;SDS011;20720;48.886;9.388;2023-07-29T05:48:33;3.40;;;1.90;;
34481;SDS011;20720;48.886;9.388;2023-07-29T05:50:58;3.08;;;1.80;;
34481;SDS011;20720;48.886;9.388;2023-07-29T05:53:24;2.78;;;1.73;;
34481;SDS011;20720;48.886;9.388;2023-07-29T05:55:49;2.60;;;1.85;;
34481;SDS011;20720;48.886;9.388;2023-07-29T05:58:14;3.58;;;1.98;;
34481;SDS011;20720;48.886;9.388;2023-07-29T06:00:40;4.07;;;2.28;;
34481;SDS011;20720;48.886;9.388;2023-07-29T06:03:05;3.40;;;2.20;;
34481;SDS011;20720;48.886;9.388;2023-07-29T06:05:30;3.67;;;2.15;;
34481;SDS011;20720;48.886;9.388;2023-07-29T06:07:55;3.22;;;1.70;;
34481;SDS011;20720;48.886;9.388;2023-07-29T06:10:21;3.10;;;1.80;;
34481;SDS011;20720;48.886;9.388;2023-07-29T06:12:47;4.03;;;1.60;;
34481;SDS011;20720;48.886;9.388;2023-07-29T06:15:12;3.40;;;2.00;;
34481;SDS011;20720;48.886;9.388;2023-07-29T06:17:38;1.50;;;1.10;;
34481;SDS011;20720;48.886;9.388;2023-07-29T06:20:04;2.42;;;1.33;;
34481;SDS011;20720;48.886;9.388;2023-07-29T06:22:30;3.08;;;1.40;;
34481;SDS011;20720;48.886;9.388;2023-07-29T06:24:56;3.08;;;1.70;;
34481;SDS011;20720;48.886;9.388;2023-07-29T06:27:21;2.00;;;1.13;;
34481;SDS011;20720;48.886;9.388;2023-07-29T06:29:46;1.70;;;1.23;;
34481;SDS011;20720;48.886;9.388;2023-07-29T06:32:11;2.65;;;1.58;;
34481;SDS011;20720;48.886;9.388;2023-07-29T06:34:37;2.60;;;1.40;;
34481;SDS011;20720;48.886;9.388;2023-07-29T06:37:02;1.83;;;1.27;;
34481;SDS011;20720;48.886;9.388;2023-07-29T06:39:27;2.75;;;1.77;;
34481;SDS011;20720;48.886;9.388;2023-07-29T06:41:52;2.28;;;1.33;;
34481;SDS011;20720;48.886;9.388;2023-07-29T06:44:17;4.25;;;1.40;;
34481;SDS011;20720;48.886;9.388;2023-07-29T06:46:43;2.08;;;1.30;;
34481;SDS011;20720;48.886;9.388;2023-07-29T06:49:08;3.38;;;1.40;;
34481;SDS011;20720;48.886;9.388;2023-07-29T06:51:33;2.45;;;1.23;;
34481;SDS011;20720;48.886;9.388;2023-07-29T06:54:00;1.63;;;1.20;;
34481;SDS011;20720;48.886;9.388;2023-07-29T06:56:26;2.97;;;1.30;;
34481;SDS011;20720;48.886;9.388;2023-07-29T06:58:51;1.83;;;1.30;;
34481;SDS011;20720;48.886;9.388;2023-07-29T07:01:17;2.30;;;1.30;;
34481;SDS011;20720;48.886;9.388;2023-07-29T07:03:42;1.48;;;1.08;;
34481;SDS011;20720;48.886;9.388;2023-07-29T07:06:07;6.28;;;1.40;;
34481;SDS011;20720;48.886;9.388;2023-07-29T07:08:32;2.63;;;1.20;;
34481;SDS011;20720;48.886;9.388;2023-07-29T07:10:58;5.80;;;1.55;;
34481;SDS011;20720;48.886;9.388;2023-07-29T07:13:23;4.82;;;1.27;;
34481;SDS011;20720;48.886;9.388;2023-07-29T07:15:48;4.45;;;1.52;;
34481;SDS011;20720;48.886;9.388;2023-07-29T07:18:13;2.10;;;1.40;;
34481;SDS011;20720;48.886;9.388;2023-07-29T07:20:39;3.75;;;1.52;;
34481;SDS011;20720;48.886;9.388;2023-07-29T07:23:04;4.23;;;1.57;;
34481;SDS011;20720;48.886;9.388;2023-07-29T07:25:30;3.03;;;1.65;;
34481;SDS011;20720;48.886;9.388;2023-07-29T07:27:56;2.30;;;1.50;;
34481;SDS011;20720;48.886;9.388;2023-07-29T07:30:21;5.03;;;2.03;;
34481;SDS011;20720;48.886;9.388;2023-07-29T07:32:46;9.82;;;1.95;;
34481;SDS011;20720;48.886;9.388;2023-07-29T07:35:12;5.30;;;1.90;;
34481;SDS011;20720;48.886;9.388;2023-07-29T07:37:37;5.05;;;1.83;;
34481;SDS011;20720;48.886;9.388;2023-07-29T07:40:03;3.00;;;1.65;;
34481;SDS011;20720;48.886;9.388;2023-07-29T07:42:29;4.80;;;2.10;;
34481;SDS011;20720;48.886;9.388;2023-07-29T07:44:54;5.50;;;1.60;;
34481;SDS011;20720;48.886;9.388;2023-07-29T07:47:19;2.40;;;1.50;;
34481;SDS011;20720;48.886;9.388;2023-07-29T07:49:45;4.78;;;1.55;;
34481;SDS011;20720;48.886;9.388;2023-07-29T07:52:10;2.30;;;1.30;;
34481;SDS011;20720;48.886;9.388;2023-07-29T07:54:35;3.47;;;1.23;;
34481;SDS011;20720;48.886;9.388;2023-07-29T07:57:00;2.30;;;1.30;;
34481;SDS011;20720;48.886;9.388;2023-07-29T07:59:26;3.17;;;1.50;;
34481;SDS011;20720;48.886;9.388;2023-07-29T08:01:51;5.47;;;1.80;;
34481;SDS011;20720;48.886;9.388;2023-07-29T08:04:17;3.60;;;1.80;;
34481;SDS011;20720;48.886;9.388;2023-07-29T08:06:42;3.35;;;1.23;;
34481;SDS011;20720;48.886;9.388;2023-07-29T08:09:07;2.35;;;1.58;;
34481;SDS011;20720;48.886;9.388;2023-07-29T08:11:33;3.22;;;1.70;;
34481;SDS011;20720;48.886;9.388;2023-07-29T08:13:58;2.17;;;1.38;;
34481;SDS011;20720;48.886;9.388;2023-07-29T08:16:23;3.70;;;1.60;;
34481;SDS011;20720;48.886;9.388;2023-07-29T08:18:49;2.53;;;1.55;;
34481;SDS011;20720;48.886;9.388;2023-07-29T08:21:14;3.20;;;1.42;;
34481;SDS011;20720;48.886;9.388;2023-07-29T08:23:39;2.40;;;1.45;;
34481;SDS011;20720;48.886;9.388;2023-07-29T08:26:05;2.65;;;1.65;;
34481;SDS011;20720;48.886;9.388;2023-07-29T08:28:31;1.75;;;1.25;;
34481;SDS011;20720;48.886;9.388;2023-07-29T08:30:58;2.17;;;1.17;;
34481;SDS011;20720;48.886;9.388;2023-07-29T08:33:23;3.30;;;1.30;;
34481;SDS011;20720;48.886;9.388;2023-07-29T08:35:48;1.80;;;1.00;;
34481;SDS011;20720;48.886;9.388;2023-07-29T08:38:14;2.30;;;1.13;;
34481;SDS011;20720;48.886;9.388;2023-07-29T08:40:43;2.42;;;1.10;;
34481;SDS011;20720;48.886;9.388;2023-07-29T08:43:14;3.75;;;0.80;;
34481;SDS011;20720;48.886;9.388;2023-07-29T08:45:43;2.28;;;1.25;;
34481;SDS011;20720;48.886;9.388;2023-07-29T08:48:09;5.22;;;1.42;;
34481;SDS011;20720;48.886;9.388;2023-07-29T08:50:36;2.13;;;0.95;;
34481;SDS011;20720;48.886;9.388;2023-07-29T08:53:03;1.98;;;0.95;;
34481;SDS011;20720;48.886;9.388;2023-07-29T08:55:30;1.90;;;1.00;;
34481;SDS011;20720;48.886;9.388;2023-07-29T08:57:56;2.47;;;0.90;;
34481;SDS011;20720;48.886;9.388;2023-07-29T09:00:22;5.10;;;1.05;;
34481;SDS011;20720;48.886;9.388;2023-07-29T09:02:47;1.77;;;0.90;;
34481;SDS011;20720;48.886;9.388;2023-07-29T09:05:13;1.85;;;0.85;;
34481;SDS011;20720;48.886;9.388;2023-07-29T09:07:38;1.40;;;0.80;;
34481;SDS011;20720;48.886;9.388;2023-07-29T09:10:08;2.10;;;1.08;;
34481;SDS011;20720;48.886;9.388;2023-07-29T09:12:34;2.38;;;1.00;;
34481;SDS011;20720;48.886;9.388;2023-07-29T09:14:59;2.25;;;0.98;;
34481;SDS011;20720;48.886;9.388;2023-07-29T09:17:24;2.25;;;1.10;;
34481;SDS011;20720;48.886;9.388;2023-07-29T09:19:50;2.90;;;1.10;;
34481;SDS011;20720;48.886;9.388;2023-07-29T09:22:19;2.97;;;1.00;;
34481;SDS011;20720;48.886;9.388;2023-07-29T09:24:46;1.98;;;0.82;;
34481;SDS011;20720;48.886;9.388;2023-07-29T09:27:24;3.03;;;1.20;;
34481;SDS011;20720;48.886;9.388;2023-07-29T09:29:50;3.15;;;1.10;;
34481;SDS011;20720;48.886;9.388;2023-07-29T09:32:22;2.45;;;1.00;;
34481;SDS011;20720;48.886;9.388;2023-07-29T09:34:49;1.85;;;0.80;;
34481;SDS011;20720;48.886;9.388;2023-07-29T09:37:15;2.35;;;1.00;;
34481;SDS011;20720;48.886;9.388;2023-07-29T09:39:48;2.33;;;0.88;;
34481;SDS011;20720;48.886;9.388;2023-07-29T09:42:17;1.95;;;0.88;;
34481;SDS011;20720;48.886;9.388;2023-07-29T09:44:47;1.98;;;1.00;;
34481;SDS011;20720;48.886;9.388;2023-07-29T09:47:23;1.73;;;1.08;;
34481;SDS011;20720;48.886;9.388;2023-07-29T09:49:52;1.70;;;0.90;;
34481;SDS011;20720;48.886;9.388;2023-07-29T09:52:19;1.95;;;0.95;;
34481;SDS011;20720;48.886;9.388;2023-07-29T09:54:45;2.47;;;1.30;;
34481;SDS011;20720;48.886;9.388;2023-07-29T09:57:12;2.83;;;1.10;;
34481;SDS011;20720;48.886;9.388;2023-07-29T09:59:39;1.48;;;0.80;;
34481;SDS011;20720;48.886;9.388;2023-07-29T10:02:04;2.40;;;1.03;;
34481;SDS011;20720;48.886;9.388;2023-07-29T10:04:31;2.58;;;1.00;;
34481;SDS011;20720;48.886;9.388;2023-07-29T10:06:57;2.65;;;1.00;;
34481;SDS011;20720;48.886;9.388;2023-07-29T10:09:22;5.00;;;1.00;;
34481;SDS011;20720;48.886;9.388;2023-07-29T10:11:48;2.03;;;1.10;;
34481;SDS011;20720;48.886;9.388;2023-07-29T10:14:15;4.57;;;1.20;;
34481;SDS011;20720;48.886;9.388;2023-07-29T10:16:41;1.73;;;0.80;;
34481;SDS011;20720;48.886;9.388;2023-07-29T10:19:09;1.05;;;0.60;;
34481;SDS011;20720;48.886;9.388;2023-07-29T10:21:36;2.42;;;0.70;;
34481;SDS011;20720;48.886;9.388;2023-07-29T10:24:04;3.45;;;0.77;;
34481;SDS011;20720;48.886;9.388;2023-07-29T10:26:34;1.13;;;0.60;;
34481;SDS011;20720;48.886;9.388;2023-07-29T10:29:02;2.38;;;0.80;;
34481;SDS011;20720;48.886;9.388;2023-07-29T10:31:31;1.67;;;0.93;;
34481;SDS011;20720;48.886;9.388;2023-07-29T10:33:57;1.63;;;0.80;;
34481;SDS011;20720;48.886;9.388;2023-07-29T10:36:23;4.25;;;0.80;;
34481;SDS011;20720;48.886;9.388;2023-07-29T10:38:49;3.72;;;0.70;;
34481;SDS011;20720;48.886;9.388;2023-07-29T10:41:14;2.05;;;0.90;;
34481;SDS011;20720;48.886;9.388;2023-07-29T10:43:40;2.40;;;1.00;;
34481;SDS011;20720;48.886;9.388;2023-07-29T10:48:53;2.60;;;1.20;;
34481;SDS011;20720;48.886;9.388;2023-07-29T10:51:23;3.00;;;1.10;;
34481;SDS011;20720;48.886;9.388;2023-07-29T10:53:52;1.80;;;0.68;;
34481;SDS011;20720;48.886;9.388;2023-07-29T10:56:32;1.40;;;0.60;;
34481;SDS011;20720;48.886;9.388;2023-07-29T10:59:00;1.48;;;0.68;;
34481;SDS011;20720;48.886;9.388;2023-07-29T11:01:51;2.03;;;0.80;;
34481;SDS011;20720;48.886;9.388;2023-07-29T11:15:14;1.17;;;0.50;;
34481;SDS011;20720;48.886;9.388;2023-07-29T11:17:45;2.10;;;0.70;;
34481;SDS011;20720;48.886;9.388;2023-07-29T11:20:24;0.80;;;0.50;;
34481;SDS011;20720;48.886;9.388;2023-07-29T11:22:52;1.55;;;0.43;;
34481;SDS011;20720;48.886;9.388;2023-07-29T11:25:19;1.20;;;0.60;;
34481;SDS011;20720;48.886;9.388;2023-07-29T11:27:47;1.27;;;0.60;;
34481;SDS011;20720;48.886;9.388;2023-07-29T11:30:13;1.38;;;0.68;;
34481;SDS011;20720;48.886;9.388;2023-07-29T11:32:40;1.27;;;0.55;;
34481;SDS011;20720;48.886;9.388;2023-07-29T11:35:07;0.80;;;0.50;;
34481;SDS011;20720;48.886;9.388;2023-07-29T11:37:35;1.27;;;0.60;;
34481;SDS011;20720;48.886;9.388;2023-07-29T11:40:00;2.28;;;0.50;;
34481;SDS011;20720;48.886;9.388;2023-07-29T11:42:26;1.42;;;0.60;;
34481;SDS011;20720;48.886;9.388;2023-07-29T11:44:52;0.88;;;0.40;;
34481;SDS011;20720;48.886;9.388;2023-07-29T11:47:18;0.98;;;0.30;;
34481;SDS011;20720;48.886;9.388;2023-07-29T11:49:43;1.40;;;0.50;;
34481;SDS011;20720;48.886;9.388;2023-07-29T11:52:09;0.73;;;0.40;;
34481;SDS011;20720;48.886;9.388;2023-07-29T11:54:38;0.93;;;0.52;;
34481;SDS011;20720;48.886;9.388;2023-07-29T11:57:10;0.63;;;0.40;;
34481;SDS011;20720;48.886;9.388;2023-07-29T11:59:36;1.50;;;0.40;;
34481;SDS011;20720;48.886;9.388;2023-07-29T12:02:24;1.27;;;0.60;;
34481;SDS011;20720;48.886;9.388;2023-07-29T12:04:48;0.75;;;0.35;;
34481;SDS011;20720;48.886;9.388;2023-07-29T12:07:16;1.42;;;0.60;;
34481;SDS011;20720;48.886;9.388;2023-07-29T12:09:42;1.58;;;0.60;;
34481;SDS011;20720;48.886;9.388;2023-07-29T12:12:08;1.77;;;0.60;;
34481;SDS011;20720;48.886;9.388;2023-07-29T12:14:34;1.30;;;0.60;;
34481;SDS011;20720;48.886;9.388;2023-07-29T12:17:00;1.10;;;0.60;;
34481;SDS011;20720;48.886;9.388;2023-07-29T12:19:31;0.70;;;0.45;;
34481;SDS011;20720;48.886;9.388;2023-07-29T12:22:01;4.35;;;0.55;;
34481;SDS011;20720;48.886;9.388;2023-07-29T12:24:29;2.83;;;0.70;;
34481;SDS011;20720;48.886;9.388;2023-07-29T12:26:55;1.67;;;0.60;;
34481;SDS011;20720;48.886;9.388;2023-07-29T12:29:21;0.95;;;0.57;;
34481;SDS011;20720;48.886;9.388;2023-07-29T12:31:47;1.00;;;0.60;;
34481;SDS011;20720;48.886;9.388;2023-07-29T12:34:19;1.08;;;0.65;;
34481;SDS011;20720;48.886;9.388;2023-07-29T12:36:46;1.35;;;0.73;;
34481;SDS011;20720;48.886;9.388;2023-07-29T12:39:19;1.60;;;0.70;;
34481;SDS011;20720;48.886;9.388;2023-07-29T12:41:45;1.33;;;0.70;;
34481;SDS011;20720;48.886;9.388;2023-07-29T12:44:11;1.33;;;0.70;;
34481;SDS011;20720;48.886;9.388;2023-07-29T12:46:36;1.15;;;0.60;;
34481;SDS011;20720;48.886;9.388;2023-07-29T12:49:02;1.83;;;0.70;;
34481;SDS011;20720;48.886;9.388;2023-07-29T12:51:27;1.00;;;0.70;;
34481;SDS011;20720;48.886;9.388;2023-07-29T12:53:53;0.93;;;0.50;;
34481;SDS011;20720;48.886;9.388;2023-07-29T12:56:19;1.25;;;0.70;;
34481;SDS011;20720;48.886;9.388;2023-07-29T12:58:44;1.55;;;0.80;;
34481;SDS011;20720;48.886;9.388;2023-07-29T13:01:09;1.50;;;0.90;;
34481;SDS011;20720;48.886;9.388;2023-07-29T13:03:37;1.85;;;0.98;;
34481;SDS011;20720;48.886;9.388;2023-07-29T13:06:03;1.47;;;0.80;;
34481;SDS011;20720;48.886;9.388;2023-07-29T13:08:29;2.20;;;1.00;;
34481;SDS011;20720;48.886;9.388;2023-07-29T13:10:55;2.03;;;1.00;;
34481;SDS011;20720;48.886;9.388;2023-07-29T13:13:20;1.20;;;0.80;;
34481;SDS011;20720;48.886;9.388;2023-07-29T13:15:46;3.70;;;1.30;;
34481;SDS011;20720;48.886;9.388;2023-07-29T13:18:11;2.03;;;1.00;;
34481;SDS011;20720;48.886;9.388;2023-07-29T13:20:36;2.00;;;0.90;;
34481;SDS011;20720;48.886;9.388;2023-07-29T13:23:02;1.35;;;0.90;;
34481;SDS011;20720;48.886;9.388;2023-07-29T13:25:27;1.30;;;0.82;;
34481;SDS011;20720;48.886;9.388;2023-07-29T13:27:53;2.22;;;1.00;;
34481;SDS011;20720;48.886;9.388;2023-07-29T13:30:18;1.50;;;1.00;;
34481;SDS011;20720;48.886;9.388;2023-07-29T13:32:43;1.83;;;1.13;;
34481;SDS011;20720;48.886;9.388;2023-07-29T13:35:09;1.17;;;0.80;;
34481;SDS011;20720;48.886;9.388;2023-07-29T13:37:34;1.40;;;0.95;;
34481;SDS011;20720;48.886;9.388;2023-07-29T13:39:59;1.73;;;1.17;;
34481;SDS011;20720;48.886;9.388;2023-07-29T13:42:24;1.47;;;0.90;;
34481;SDS011;20720;48.886;9.388;2023-07-29T13:44:50;4.83;;;1.00;;
34481;SDS011;20720;48.886;9.388;2023-07-29T13:47:15;1.37;;;0.70;;
34481;SDS011;20720;48.886;9.388;2023-07-29T13:49:40;1.40;;;0.90;;
34481;SDS011;20720;48.886;9.388;2023-07-29T13:52:05;1.73;;;1.10;;
34481;SDS011;20720;48.886;9.388;2023-07-29T13:54:31;2.47;;;1.02;;
34481;SDS011;20720;48.886;9.388;2023-07-29T13:56:57;2.90;;;0.90;;
34481;SDS011;20720;48.886;9.388;2023-07-29T13:59:23;1.60;;;1.00;;
34481;SDS011;20720;48.886;9.388;2023-07-29T14:01:48;2.00;;;0.90;;
34481;SDS011;20720;48.886;9.388;2023-07-29T14:04:13;1.73;;;0.97;;
34481;SDS011;20720;48.886;9.388;2023-07-29T14:06:38;1.63;;;0.90;;
34481;SDS011;20720;48.886;9.388;2023-07-29T14:09:03;3.23;;;1.30;;
34481;SDS011;20720;48.886;9.388;2023-07-29T14:11:29;2.30;;;0.93;;
34481;SDS011;20720;48.886;9.388;2023-07-29T14:13:54;1.93;;;0.90;;
34481;SDS011;20720;48.886;9.388;2023-07-29T14:16:19;3.80;;;1.10;;
34481;SDS011;20720;48.886;9.388;2023-07-29T14:18:44;1.10;;;0.80;;
34481;SDS011;20720;48.886;9.388;2023-07-29T14:21:10;1.60;;;1.00;;
34481;SDS011;20720;48.886;9.388;2023-07-29T14:23:35;1.70;;;1.07;;
34481;SDS011;20720;48.886;9.388;2023-07-29T14:26:00;2.50;;;1.00;;
34481;SDS011;20720;48.886;9.388;2023-07-29T14:28:25;1.52;;;1.00;;
34481;SDS011;20720;48.886;9.388;2023-07-29T14:30:51;2.90;;;1.20;;
34481;SDS011;20720;48.886;9.388;2023-07-29T14:33:16;1.20;;;0.80;;
34481;SDS011;20720;48.886;9.388;2023-07-29T14:35:41;1.90;;;1.02;;
34481;SDS011;20720;48.886;9.388;2023-07-29T14:38:07;1.95;;;0.90;;
34481;SDS011;20720;48.886;9.388;2023-07-29T14:40:32;1.63;;;1.00;;
34481;SDS011;20720;48.886;9.388;2023-07-29T14:42:57;1.90;;;0.90;;
34481;SDS011;20720;48.886;9.388;2023-07-29T14:45:22;3.00;;;1.37;;
34481;SDS011;20720;48.886;9.388;2023-07-29T14:47:48;2.10;;;1.23;;
34481;SDS011;20720;48.886;9.388;2023-07-29T14:50:13;2.33;;;1.40;;
34481;SDS011;20720;48.886;9.388;2023-07-29T14:52:38;1.60;;;1.00;;
34481;SDS011;20720;48.886;9.388;2023-07-29T14:55:04;2.03;;;0.90;;
34481;SDS011;20720;48.886;9.388;2023-07-29T14:57:29;1.60;;;1.00;;
34481;SDS011;20720;48.886;9.388;2023-07-29T14:59:54;3.47;;;1.03;;